Details From EBCI - Brussels South - Charleroi
To EBBR - Brussels Airport
Flight Number -
Tags Standard
Created
Modified
Stats Distance 41 nm / 77 km
Max Altitude 5,000 ft / 1,524 m
Waypoints 7
Social Downloads 12
Likes 0
Share

Download

Looking for another format? Having issues loading an existing format? Contact us
Advertisement - Login to hide

Notes

CAX Pilots : both airports have nice scenery...! Landing ILS Rwy 02

Route

EBCI GSY06 +50.51_+004.17 +50.64_+004.27 IBX12 OZ EBBR

ID Type Via Altitude (ft/m) Position (lat/lon) Dist (leg/tot) Name
O EBCI APT - 614 / 187 50.46006 / 4.45304 - / 0 nm Brussels South - Charleroi
GSY06 FIX - 5,000 / 1,524 50.41365 / 4.29812 6 / 6 nm
+50.51_+004.17 DME - 5,000 / 1,524 50.50555 / 4.16972 7 / 13 nm
+50.64_+004.27 DME - 5,000 / 1,524 50.63611 / 4.27139 8 / 22 nm
IBX12 FIX - 2,000 / 610 50.71637 / 4.41749 7 / 30 nm
OZ NDB - 2,000 / 610 50.82694 / 4.46694 6 / 36 nm BRUSSELS NDB
O EBBR APT - 184 / 56 50.89993 / 4.49672 4 / 41 nm

Altitude Profile

Advertisement - Login to hide

EBCI

Details ICAO EBCI (CRL)
Name Brussels South - Charleroi
Region Belgium
Timezone Europe/Brussels (UTC+2.0)
Stats Elevation 612 ft / 187 m (AMSL)
Location 50.459900° 4.453110°
Runways 1
Magnetic Variation 1.494° E

METAR

EBCI 072050Z 06004KT CAVOK 27/12 Q1019 NOSIG

Decode

TAF

TAF EBCI 071720Z 0718/0824 05005KT CAVOK

Decode

Departure Runways

ID Width Length Bearing (true/mag) Surface Threshold Overrun Markings Lighting
07 148 ft / 45 m 8,347 ft / 2,544 m 65.45° / 63.96° ASPHALT 1,470 ft / 448 m 0 ft / 0 m PREC-APP CENTERLINE EDGE THRESHOLD MALS TDZ REIL-UNI
25 148 ft / 45 m 8,347 ft / 2,544 m 245.48° / 243.98° ASPHALT 0 ft / 0 m 0 ft / 0 m UK-PREC-APP CENTERLINE EDGE THRESHOLD ALSF-I REIL-OMNI

EBBR

Details ICAO EBBR (BRU)
Name Brussels
Region Belgium
Timezone Europe/Brussels (UTC+2.0)
Stats Elevation 184 ft / 56 m (AMSL)
Location 50.899900° 4.492770°
Runways 3
Magnetic Variation 1.487° E

METAR

EBBR 072050Z 09003KT CAVOK 27/13 Q1018 NOSIG

Decode

TAF

TAF EBBR 071720Z 0718/0824 06005KT CAVOK= TAF EDDF 071700Z 0718/0824 05004KT CAVOK TEMPO 0812/0815 31005KT

Decode

Destination Runways

ID Width Length Bearing (true/mag) Surface Threshold Overrun Markings Lighting
01 164 ft / 50 m 9,810 ft / 2,990 m 14.44° / 12.95° ASPHALT 157 ft / 48 m 0 ft / 0 m PREC-APP CENTERLINE EDGE THRESHOLD ALSF-II TDZ REIL-OMNI
07L 148 ft / 45 m 11,917 ft / 3,632 m 65.37° / 63.89° ASPHALT 843 ft / 257 m 72 ft / 22 m PREC-APP CENTERLINE EDGE THRESHOLD TDZ REIL-OMNI
07R 148 ft / 45 m 10,522 ft / 3,207 m 69.88° / 68.39° ASPHALT 407 ft / 124 m 0 ft / 0 m PREC-APP CENTERLINE EDGE THRESHOLD REIL-OMNI
19 164 ft / 50 m 9,810 ft / 2,990 m 194.45° / 192.96° ASPHALT 722 ft / 220 m 43 ft / 13 m PREC-APP CENTERLINE EDGE THRESHOLD ALSF-I TDZ REIL-OMNI
25L 148 ft / 45 m 10,522 ft / 3,207 m 249.91° / 248.42° ASPHALT 0 ft / 0 m 13 ft / 4 m PREC-APP CENTERLINE EDGE THRESHOLD ALSF-II TDZ REIL-OMNI
25R 148 ft / 45 m 11,917 ft / 3,632 m 245.41° / 243.92° ASPHALT 981 ft / 299 m 0 ft / 0 m PREC-APP CENTERLINE EDGE THRESHOLD ALSF-II TDZ REIL-OMNI

Approach Navaids

Runway Type Ident Frequency Range Bearing (true/mag) Slope Elevation
01 OM OM - - 14.41° / 12.93 ° - 184 ft / 56 m (AMSL)
01 DME IBX 109.90 MHz 18 nm / 33 km - - 184 ft / 56 m (AMSL)
01 GS IBX 109.90 MHz 10 nm / 19 km 14.39° / 12.90 ° 3.00° 184 ft / 56 m (AMSL)
01 LOC-ILS IBX 109.90 MHz 18 nm / 33 km 14.39° / 12.90 ° - 184 ft / 56 m (AMSL)
01 MM MM - - 14.41° / 12.93 ° - 184 ft / 56 m (AMSL)
19 GS IBM 111.15 MHz 10 nm / 19 km 194.39° / 192.90 ° 3.00° 184 ft / 56 m (AMSL)
19 DME IBM 111.15 MHz 18 nm / 33 km - - 184 ft / 56 m (AMSL)
19 LOC-ILS IBM 111.15 MHz 18 nm / 33 km 194.39° / 192.90 ° - 184 ft / 56 m (AMSL)
25L OM OM - - 249.91° / 248.43 ° - 184 ft / 56 m (AMSL)
25L GS IBL 110.35 MHz 10 nm / 19 km 249.93° / 248.44 ° 3.00° 184 ft / 56 m (AMSL)
25L LOC-ILS IBL 110.35 MHz 18 nm / 33 km 249.93° / 248.44 ° - 184 ft / 56 m (AMSL)
25L MM MM - - 249.91° / 248.43 ° - 184 ft / 56 m (AMSL)
25R LOC-ILS IBR 108.90 MHz 18 nm / 33 km 245.31° / 243.82 ° - 184 ft / 56 m (AMSL)
25R MM MM - - 245.18° / 243.70 ° - 184 ft / 56 m (AMSL)
25R GS IBR 108.90 MHz 10 nm / 19 km 245.31° / 243.82 ° 3.00° 184 ft / 56 m (AMSL)
25R DME IBR 108.90 MHz 18 nm / 33 km - - 184 ft / 56 m (AMSL)

Popular Alternatives